Time;durP1;ratioP1;P1;durP2;ratioP2;P2;SDS_P1;SDS_P2;PMS_P1;PMS_P2;Temp;Humidity;BMP_temperature;BMP_pressure;BME280_temperature;BME280_humidity;BME280_pressure;Samples;Min_cycle;Max_cycle;Signal;HPM_P1;HPM_P2
2022/07/13 00:00:14;;;;;;;8.13;3.90;;;24.60;71.80;;;;;;4925278;28;20135;-83
2022/07/13 00:02:40;;;;;;;4.50;3.63;;;24.60;72.00;;;;;;4925154;28;20089;-86
2022/07/13 00:05:07;;;;;;;5.85;3.30;;;24.60;71.90;;;;;;4918009;28;20150;-89
2022/07/13 00:07:36;;;;;;;7.85;4.05;;;24.60;72.60;;;;;;4930024;28;20040;-83
2022/07/13 00:10:04;;;;;;;7.15;3.70;;;24.60;72.00;;;;;;4927144;28;20103;-90
2022/07/13 00:12:30;;;;;;;8.43;3.65;;;24.60;72.10;;;;;;4933751;28;20042;-93
2022/07/13 00:14:56;;;;;;;6.03;3.38;;;24.50;72.20;;;;;;4914906;28;20040;-92
2022/07/13 00:17:22;;;;;;;6.72;3.63;;;24.50;72.30;;;;;;4925381;28;20046;-88
2022/07/13 00:19:48;;;;;;;5.03;3.78;;;24.50;72.30;;;;;;4924463;28;20043;-88
2022/07/13 00:22:14;;;;;;;6.82;3.60;;;24.50;72.20;;;;;;4923516;28;20433;-87
2022/07/13 00:24:40;;;;;;;6.57;3.33;;;24.50;72.10;;;;;;4922810;28;20047;-87
2022/07/13 00:27:06;;;;;;;6.53;3.50;;;24.50;72.10;;;;;;4922170;28;20078;-87
2022/07/13 00:29:32;;;;;;;6.50;3.58;;;24.50;72.20;;;;;;4926372;28;20136;-86
2022/07/13 00:31:58;;;;;;;5.38;3.42;;;24.50;72.20;;;;;;4920526;28;20485;-84
2022/07/13 00:34:24;;;;;;;4.07;3.67;;;24.50;72.20;;;;;;4906354;28;20040;-86
2022/07/13 00:36:50;;;;;;;6.82;3.60;;;24.40;72.10;;;;;;4925851;28;20044;-87
2022/07/13 00:39:16;;;;;;;6.40;3.90;;;24.40;72.10;;;;;;4922867;28;20047;-87
2022/07/13 00:41:46;;;;;;;5.57;3.47;;;24.40;72.20;;;;;;4922153;28;20039;-85
2022/07/13 00:44:13;;;;;;;6.38;3.55;;;24.30;72.30;;;;;;4922010;28;20371;-85
2022/07/13 00:46:51;;;;;;;6.50;3.80;;;24.40;72.30;;;;;;4920830;28;20039;-85
2022/07/13 00:49:17;;;;;;;7.38;3.58;;;24.40;72.50;;;;;;4923286;28;20063;-83
2022/07/13 00:51:43;;;;;;;7.72;3.90;;;24.40;72.40;;;;;;4923745;28;20039;-89
2022/07/13 00:54:10;;;;;;;8.77;4.45;;;24.40;72.20;;;;;;4923032;28;20028;-85
2022/07/13 00:56:36;;;;;;;7.20;4.50;;;24.30;72.10;;;;;;4926462;28;20020;-88
2022/07/13 00:59:05;;;;;;;9.02;4.25;;;24.30;72.20;;;;;;4911523;28;20210;-91
2022/07/13 01:01:31;;;;;;;9.52;4.28;;;24.20;72.30;;;;;;4922739;28;20387;-91
2022/07/13 01:03:57;;;;;;;11.70;5.25;;;24.20;72.50;;;;;;4923583;28;20498;-85
2022/07/13 01:06:23;;;;;;;6.18;4.28;;;24.20;72.50;;;;;;4925234;28;20134;-90
2022/07/13 01:08:49;;;;;;;10.07;3.95;;;24.20;72.70;;;;;;4907969;28;20040;-90
2022/07/13 01:11:15;;;;;;;5.38;4.05;;;24.20;72.70;;;;;;4923205;28;20035;-90
2022/07/13 01:13:41;;;;;;;7.38;3.92;;;24.20;72.50;;;;;;4925517;28;20039;-87
2022/07/13 01:16:10;;;;;;;7.28;4.00;;;24.20;72.50;;;;;;4923212;28;20042;-90
2022/07/13 01:18:37;;;;;;;8.95;4.30;;;24.20;72.60;;;;;;4921802;28;20160;-88
2022/07/13 01:21:05;;;;;;;9.77;4.68;;;24.20;72.60;;;;;;4921884;28;20043;-88
2022/07/13 01:23:32;;;;;;;10.00;4.53;;;24.20;72.70;;;;;;4926168;28;20410;-87
2022/07/13 01:25:59;;;;;;;6.10;4.15;;;24.20;72.90;;;;;;4925999;28;20118;-89
2022/07/13 01:28:25;;;;;;;6.40;4.30;;;24.20;72.90;;;;;;4926539;28;20028;-88
2022/07/13 01:30:51;;;;;;;10.75;5.00;;;24.20;72.80;;;;;;4923257;28;20173;-90
2022/07/13 01:33:17;;;;;;;6.93;4.82;;;24.10;72.80;;;;;;4921299;28;20119;-85
2022/07/13 01:35:43;;;;;;;9.82;5.90;;;24.10;72.60;;;;;;4917348;29;20045;-93
2022/07/13 01:38:10;;;;;;;11.18;4.88;;;24.10;72.50;;;;;;4925948;28;20052;-85
2022/07/13 01:40:36;;;;;;;9.32;4.65;;;24.20;72.30;;;;;;5028328;28;20395;-92
2022/07/13 01:43:02;;;;;;;12.07;5.78;;;24.20;72.10;;;;;;5012732;28;20037;-93
2022/07/13 01:45:28;;;;;;;10.07;5.25;;;24.20;72.10;;;;;;5023138;28;20056;-93
2022/07/13 01:47:55;;;;;;;11.52;5.70;;;24.20;72.30;;;;;;5038578;28;20057;-91
2022/07/13 01:50:25;;;;;;;11.30;5.53;;;24.20;72.30;;;;;;5022132;28;20037;-93
2022/07/13 01:52:52;;;;;;;12.25;5.88;;;24.20;72.20;;;;;;4992854;28;20021;-92
2022/07/13 01:55:18;;;;;;;13.00;6.65;;;24.20;72.30;;;;;;5026842;28;20038;-91
2022/07/13 01:57:45;;;;;;;13.20;6.30;;;24.20;72.10;;;;;;5026391;28;20045;-91
2022/07/13 02:00:17;;;;;;;14.57;6.30;;;24.20;72.10;;;;;;5026706;28;20034;-89
2022/07/13 02:02:46;;;;;;;13.18;6.38;;;24.10;72.00;;;;;;5022480;28;20136;-91
2022/07/13 02:05:16;;;;;;;9.88;6.43;;;24.10;72.20;;;;;;5024540;28;20504;-92
2022/07/13 02:07:42;;;;;;;13.02;6.40;;;24.10;72.30;;;;;;5047538;28;20220;-80
2022/07/13 02:10:11;;;;;;;8.85;5.45;;;24.10;72.30;;;;;;5016204;28;20021;-88
2022/07/13 02:12:38;;;;;;;12.07;5.57;;;24.20;72.50;;;;;;4925806;28;20604;-90
2022/07/13 02:15:10;;;;;;;10.50;5.85;;;24.20;72.50;;;;;;4909463;29;20055;-90
2022/07/13 02:17:38;;;;;;;10.07;5.70;;;24.20;72.70;;;;;;4909254;28;20094;-91
2022/07/13 02:20:07;;;;;;;13.90;5.93;;;24.20;72.60;;;;;;4926120;28;20036;-92
2022/07/13 02:22:44;;;;;;;11.20;5.60;;;24.20;72.40;;;;;;4921575;29;20525;-86
2022/07/13 02:25:10;;;;;;;13.15;6.13;;;24.20;72.50;;;;;;4907055;29;20114;-87
2022/07/13 02:27:36;;;;;;;11.63;5.82;;;24.30;72.50;;;;;;4908393;28;20077;-93
2022/07/13 02:30:03;;;;;;;12.35;5.38;;;24.40;72.30;;;;;;4938311;28;20040;-91
2022/07/13 02:32:29;;;;;;;9.18;5.63;;;24.50;72.10;;;;;;4924939;29;20028;-90
2022/07/13 02:34:57;;;;;;;11.00;5.97;;;24.60;71.80;;;;;;4907046;29;20035;-93
2022/07/13 02:37:23;;;;;;;9.85;5.88;;;24.80;71.60;;;;;;4925211;29;20039;-93
2022/07/13 02:39:51;;;;;;;11.88;6.80;;;24.90;71.40;;;;;;4921930;29;20544;-88
2022/07/13 02:42:17;;;;;;;15.63;7.20;;;25.00;70.80;;;;;;4929180;29;20032;-91
2022/07/13 02:44:45;;;;;;;20.23;6.80;;;25.10;70.60;;;;;;4926611;29;20040;-91
2022/07/13 02:47:12;;;;;;;10.27;6.32;;;25.20;70.50;;;;;;4903453;29;20038;-93
2022/07/13 02:49:38;;;;;;;10.70;6.70;;;25.40;70.10;;;;;;4938906;28;20086;-93
2022/07/13 02:52:04;;;;;;;13.93;6.47;;;25.50;70.00;;;;;;4910257;28;20056;-96
2022/07/13 02:54:30;;;;;;;12.75;6.45;;;25.60;69.90;;;;;;4908349;28;20081;-89
2022/07/13 02:56:57;;;;;;;17.38;6.95;;;25.70;69.80;;;;;;4922470;29;20037;-90
2022/07/13 02:59:24;;;;;;;13.82;6.70;;;25.80;69.90;;;;;;4926992;29;20118;-93
2022/07/13 03:01:50;;;;;;;14.63;6.32;;;25.90;69.30;;;;;;4927580;28;20509;-87
2022/07/13 03:04:16;;;;;;;15.52;6.43;;;26.00;69.40;;;;;;4943573;28;20032;-94
2022/07/13 03:06:42;;;;;;;10.50;5.93;;;26.00;69.80;;;;;;4912803;29;20040;-91
2022/07/13 03:09:08;;;;;;;11.77;6.05;;;26.10;69.10;;;;;;4924730;29;20039;-81
2022/07/13 03:11:34;;;;;;;16.15;6.47;;;26.10;68.90;;;;;;4937939;28;20042;-81
2022/07/13 03:14:03;;;;;;;13.57;5.68;;;26.10;69.00;;;;;;4926743;29;20522;-81
2022/07/13 03:16:30;;;;;;;11.73;5.70;;;26.00;69.40;;;;;;4922487;29;20119;-80
2022/07/13 03:18:57;;;;;;;10.30;5.75;;;26.00;69.20;;;;;;4909049;28;20035;-79
2022/07/13 03:21:29;;;;;;;10.07;5.75;;;26.00;69.20;;;;;;4939681;28;20410;-79
2022/07/13 03:23:56;;;;;;;11.25;5.25;;;25.90;68.60;;;;;;4923758;29;20123;-81
2022/07/13 03:26:23;;;;;;;8.52;5.07;;;25.90;68.60;;;;;;4935838;28;20044;-81
2022/07/13 03:28:51;;;;;;;9.55;5.40;;;25.90;69.40;;;;;;4926265;29;20078;-79
2022/07/13 03:31:17;;;;;;;8.85;4.97;;;25.90;68.70;;;;;;4917022;28;20782;-80
2022/07/13 03:33:45;;;;;;;7.45;5.30;;;25.90;68.60;;;;;;4923744;29;20048;-81
2022/07/13 03:36:12;;;;;;;8.55;5.55;;;25.90;68.20;;;;;;4922930;29;20048;-80
2022/07/13 03:38:38;;;;;;;7.90;5.32;;;25.90;67.90;;;;;;4926638;29;20040;-81
2022/07/13 03:41:05;;;;;;;8.23;5.20;;;26.00;67.90;;;;;;4926700;28;20074;-80
2022/07/13 03:43:32;;;;;;;8.73;5.30;;;26.10;67.50;;;;;;4911065;29;20368;-80
2022/07/13 03:45:58;;;;;;;8.23;5.13;;;26.20;67.80;;;;;;4922233;29;20406;-80
2022/07/13 03:48:24;;;;;;;12.82;6.18;;;26.30;67.80;;;;;;4927280;29;20513;-80
2022/07/13 03:50:50;;;;;;;10.15;5.55;;;26.40;67.00;;;;;;4908320;29;20048;-81
2022/07/13 03:53:17;;;;;;;12.13;5.70;;;26.30;66.60;;;;;;4921027;28;20036;-79
2022/07/13 03:55:43;;;;;;;10.50;5.63;;;26.50;66.90;;;;;;4923925;28;20036;-78
2022/07/13 03:58:10;;;;;;;12.70;5.13;;;26.60;67.30;;;;;;4920612;29;21341;-78
2022/07/13 04:00:38;;;;;;;8.38;4.55;;;26.70;67.30;;;;;;4919494;28;20036;-77
2022/07/13 04:03:06;;;;;;;17.17;6.13;;;26.80;68.10;;;;;;4925261;29;20898;-79
2022/07/13 04:05:32;;;;;;;9.68;5.90;;;26.80;66.60;;;;;;4924743;29;20044;-79
2022/07/13 04:07:59;;;;;;;12.13;6.10;;;26.80;66.60;;;;;;4924611;29;20029;-80
2022/07/13 04:10:25;;;;;;;11.63;5.97;;;26.90;66.80;;;;;;4909919;29;20047;-80
2022/07/13 04:12:52;;;;;;;14.63;5.43;;;27.10;66.80;;;;;;4921310;29;20040;-81
2022/07/13 04:15:19;;;;;;;9.85;5.45;;;27.20;66.60;;;;;;4904543;28;20040;-80
2022/07/13 04:17:45;;;;;;;10.13;5.18;;;27.30;66.20;;;;;;4910205;28;20406;-81
2022/07/13 04:20:11;;;;;;;10.00;4.90;;;27.40;66.20;;;;;;4925985;29;20047;-80
2022/07/13 04:22:41;;;;;;;7.43;4.80;;;27.50;66.20;;;;;;4937502;28;20043;-80
2022/07/13 04:25:08;;;;;;;8.90;4.53;;;27.60;66.10;;;;;;4925593;29;20040;-80
2022/07/13 04:27:34;;;;;;;10.55;5.05;;;27.70;65.80;;;;;;4936761;28;20075;-77
2022/07/13 04:30:05;;;;;;;8.05;4.53;;;27.80;65.70;;;;;;4906495;28;20465;-78
2022/07/13 04:32:31;;;;;;;12.10;4.57;;;27.90;64.90;;;;;;4904373;28;20050;-78
2022/07/13 04:34:57;;;;;;;7.82;4.80;;;28.00;64.50;;;;;;4923297;29;20063;-77
2022/07/13 04:37:25;;;;;;;7.32;4.00;;;27.90;65.30;;;;;;4909064;29;20027;-77
2022/07/13 04:39:52;;;;;;;13.27;5.32;;;27.90;64.30;;;;;;4924038;29;20135;-77
2022/07/13 04:42:19;;;;;;;8.73;5.13;;;27.80;63.80;;;;;;4920472;29;20029;-77
2022/07/13 04:44:45;;;;;;;11.60;5.32;;;27.80;63.80;;;;;;4925492;29;20040;-77
2022/07/13 04:47:12;;;;;;;7.97;4.70;;;27.80;64.00;;;;;;4925225;29;20060;-77
2022/07/13 04:49:38;;;;;;;6.82;4.38;;;27.90;63.50;;;;;;4921094;29;20032;-78
2022/07/13 04:52:05;;;;;;;10.93;4.60;;;27.90;63.60;;;;;;4903687;28;20496;-76
2022/07/13 04:54:34;;;;;;;6.82;4.32;;;27.90;63.40;;;;;;4919290;29;20046;-77
2022/07/13 04:57:00;;;;;;;11.02;4.65;;;28.00;63.70;;;;;;4919670;29;20043;-78
2022/07/13 04:59:26;;;;;;;12.13;4.30;;;28.00;63.40;;;;;;4919978;29;20664;-80
2022/07/13 05:01:59;;;;;;;11.50;4.00;;;28.20;63.70;;;;;;4919059;29;20036;-79
2022/07/13 05:04:26;;;;;;;8.73;4.15;;;28.30;63.60;;;;;;4924501;29;20032;-80
2022/07/13 05:06:52;;;;;;;8.82;4.43;;;28.40;63.80;;;;;;4906233;28;20036;-77
2022/07/13 05:09:19;;;;;;;7.40;4.22;;;28.50;63.60;;;;;;4924469;29;20127;-77
2022/07/13 05:11:45;;;;;;;6.55;3.70;;;28.50;63.00;;;;;;4921426;29;20167;-77
2022/07/13 05:14:11;;;;;;;7.72;4.10;;;28.60;63.40;;;;;;4904493;29;20040;-77
2022/07/13 05:16:37;;;;;;;6.95;4.07;;;28.70;63.20;;;;;;4921653;29;20027;-77
2022/07/13 05:19:04;;;;;;;6.35;3.72;;;28.70;62.80;;;;;;4925657;29;20126;-77
2022/07/13 05:21:35;;;;;;;7.68;3.50;;;28.70;63.30;;;;;;4935890;28;20395;-76
2022/07/13 05:24:02;;;;;;;4.90;3.30;;;28.80;62.50;;;;;;4909294;29;20047;-76
2022/07/13 05:26:28;;;;;;;6.22;3.42;;;28.80;62.30;;;;;;4923907;29;20109;-76
2022/07/13 05:28:54;;;;;;;5.05;3.47;;;28.90;62.60;;;;;;4923792;29;20131;-76
2022/07/13 05:31:20;;;;;;;5.15;3.55;;;28.90;62.20;;;;;;4921823;29;20043;-77
2022/07/13 05:33:47;;;;;;;6.43;3.38;;;28.90;62.30;;;;;;4922961;29;20134;-77
2022/07/13 05:36:21;;;;;;;8.05;3.90;;;29.00;62.10;;;;;;4924023;29;20039;-75
2022/07/13 05:38:48;;;;;;;6.82;3.70;;;29.10;62.20;;;;;;4924406;29;20058;-75
2022/07/13 05:41:14;;;;;;;8.43;3.10;;;29.20;63.00;;;;;;4923817;29;20395;-75
2022/07/13 05:43:41;;;;;;;7.60;3.30;;;29.20;62.70;;;;;;4919460;29;20039;-76
2022/07/13 05:46:08;;;;;;;6.38;3.50;;;29.30;62.30;;;;;;4924215;29;20054;-77
2022/07/13 05:48:35;;;;;;;7.63;3.38;;;29.30;59.20;;;;;;4919182;29;20054;-74
2022/07/13 05:51:01;;;;;;;6.72;3.35;;;29.20;60.20;;;;;;4922573;29;20590;-80
2022/07/13 05:53:28;;;;;;;4.65;2.97;;;29.30;60.60;;;;;;4920985;29;20040;-80
2022/07/13 05:55:54;;;;;;;5.57;3.08;;;29.30;60.60;;;;;;4919937;29;20042;-78
2022/07/13 05:58:21;;;;;;;6.78;3.08;;;29.40;60.70;;;;;;4921915;29;20039;-76
2022/07/13 06:00:47;;;;;;;5.68;2.70;;;29.50;60.40;;;;;;4908542;28;20055;-77
2022/07/13 06:03:12;;;;;;;8.50;3.45;;;29.50;60.60;;;;;;4921107;28;20422;-78
2022/07/13 06:05:39;;;;;;;13.10;3.03;;;29.60;60.90;;;;;;4921477;29;20035;-78
2022/07/13 06:08:05;;;;;;;7.85;2.60;;;29.70;60.90;;;;;;4925187;29;20035;-78
2022/07/13 06:10:31;;;;;;;5.72;2.85;;;29.80;60.80;;;;;;4924050;29;20848;-79
2022/07/13 06:12:57;;;;;;;6.85;2.80;;;29.90;60.80;;;;;;4908138;29;20105;-79
2022/07/13 06:15:23;;;;;;;15.85;3.20;;;29.90;61.00;;;;;;4923194;29;20048;-79
2022/07/13 06:18:01;;;;;;;9.73;3.00;;;29.90;60.20;;;;;;5085596;28;20137;-81
2022/07/13 06:20:27;;;;;;;9.00;3.10;;;29.80;55.60;;;;;;5097468;28;20036;-78
2022/07/13 06:23:16;;;;;;;3.30;2.38;;;29.80;54.20;;;;;;5082380;28;20028;-81
2022/07/13 06:25:41;;;;;;;5.65;2.40;;;29.70;53.50;;;;;;5109224;28;20127;-81
2022/07/13 06:28:07;;;;;;;5.25;2.05;;;29.60;52.50;;;;;;5112613;28;20032;-80
2022/07/13 06:30:33;;;;;;;5.32;2.13;;;29.50;53.60;;;;;;5105610;28;20091;-78
2022/07/13 06:33:00;;;;;;;4.38;1.73;;;29.50;52.60;;;;;;5100437;28;20501;-79
2022/07/13 06:35:26;;;;;;;7.60;1.90;;;29.50;53.40;;;;;;5096515;28;20533;-80
2022/07/13 06:37:52;;;;;;;3.55;1.60;;;29.50;52.30;;;;;;5099814;28;20090;-78
2022/07/13 06:40:18;;;;;;;4.10;1.92;;;29.40;52.70;;;;;;5097458;28;20074;-78
2022/07/13 06:42:44;;;;;;;4.43;1.90;;;29.40;53.10;;;;;;5094957;28;20039;-80
2022/07/13 06:45:10;;;;;;;3.75;1.92;;;29.50;52.50;;;;;;5096207;28;20074;-77
2022/07/13 06:47:37;;;;;;;3.80;1.90;;;29.50;51.80;;;;;;5098014;28;20109;-80
2022/07/13 06:50:06;;;;;;;18.08;2.08;;;29.40;52.40;;;;;;5098225;28;20056;-81
2022/07/13 06:52:33;;;;;;;3.67;1.92;;;29.40;52.40;;;;;;5098477;28;20539;-79
2022/07/13 06:54:59;;;;;;;6.30;1.80;;;29.30;52.60;;;;;;5099342;28;20044;-81
2022/07/13 06:57:25;;;;;;;3.95;1.75;;;29.10;52.70;;;;;;5097327;28;20494;-80
2022/07/13 06:59:51;;;;;;;4.50;1.83;;;29.10;53.30;;;;;;5098180;28;20040;-74
2022/07/13 07:02:17;;;;;;;2.78;1.90;;;29.00;53.80;;;;;;5100355;28;20032;-81
2022/07/13 07:04:43;;;;;;;2.50;1.70;;;29.10;54.30;;;;;;5098326;28;20036;-79
2022/07/13 07:07:09;;;;;;;12.43;2.25;;;29.10;53.90;;;;;;5100262;28;20027;-82
2022/07/13 07:09:35;;;;;;;6.75;2.08;;;29.00;53.10;;;;;;5097396;28;20066;-80
2022/07/13 07:12:01;;;;;;;4.70;1.85;;;29.00;52.90;;;;;;5096664;28;20036;-87
2022/07/13 07:14:27;;;;;;;3.47;1.90;;;28.60;53.40;;;;;;5082499;28;20398;-82
2022/07/13 07:16:53;;;;;;;3.65;2.00;;;28.40;54.00;;;;;;5099295;28;20040;-75
2022/07/13 07:19:20;;;;;;;2.55;1.67;;;28.30;54.00;;;;;;5097361;28;20372;-81
2022/07/13 07:21:45;;;;;;;6.22;1.70;;;28.10;54.00;;;;;;5096759;28;20028;-82
2022/07/13 07:24:11;;;;;;;3.50;1.50;;;27.90;54.10;;;;;;5092164;28;20040;-75
2022/07/13 07:26:37;;;;;;;4.97;2.00;;;27.70;54.40;;;;;;5095263;28;20032;-81
2022/07/13 07:29:03;;;;;;;5.18;2.00;;;27.60;54.60;;;;;;5081622;28;20037;-78
2022/07/13 07:31:29;;;;;;;6.45;1.80;;;27.50;55.60;;;;;;5084663;28;20043;-79
2022/07/13 07:33:55;;;;;;;5.03;1.85;;;27.30;55.70;;;;;;5085816;28;20054;-86
2022/07/13 07:36:21;;;;;;;6.40;2.33;;;27.40;56.30;;;;;;5081133;28;20140;-80
2022/07/13 07:38:47;;;;;;;4.20;1.60;;;27.40;56.60;;;;;;5084526;28;20372;-84
2022/07/13 07:41:13;;;;;;;3.13;1.75;;;27.40;57.50;;;;;;5082068;28;20078;-79
2022/07/13 07:43:39;;;;;;;3.97;1.63;;;27.30;56.60;;;;;;5084041;28;20052;-78
2022/07/13 07:46:06;;;;;;;3.42;1.70;;;27.30;56.10;;;;;;5086992;28;20093;-77
2022/07/13 07:48:32;;;;;;;6.82;2.45;;;27.30;56.30;;;;;;5083977;28;20043;-81
2022/07/13 07:50:58;;;;;;;6.28;2.25;;;27.30;56.10;;;;;;5083988;28;20032;-79
2022/07/13 07:53:24;;;;;;;8.15;2.20;;;27.20;56.00;;;;;;5081945;28;20047;-78
2022/07/13 07:55:50;;;;;;;4.15;2.35;;;27.10;56.50;;;;;;5083544;28;20178;-78
2022/07/13 07:58:16;;;;;;;6.10;1.92;;;26.90;57.00;;;;;;5082663;28;20343;-78
2022/07/13 08:00:43;;;;;;;3.88;2.00;;;26.90;57.10;;;;;;5082504;28;20037;-77
2022/07/13 08:03:09;;;;;;;3.67;2.13;;;26.70;57.10;;;;;;5082189;28;20036;-77
2022/07/13 08:05:36;;;;;;;5.47;1.92;;;26.70;57.30;;;;;;5080896;28;20103;-76
2022/07/13 08:08:04;;;;;;;6.13;2.45;;;26.60;57.10;;;;;;5081215;28;20410;-78
2022/07/13 08:10:30;;;;;;;6.20;2.17;;;26.40;58.10;;;;;;5080347;28;20029;-78
2022/07/13 08:12:59;;;;;;;3.75;2.17;;;26.20;59.00;;;;;;5079771;28;20024;-77
2022/07/13 08:15:25;;;;;;;4.55;2.45;;;26.20;59.10;;;;;;5081022;28;20028;-79
2022/07/13 08:17:51;;;;;;;3.75;2.30;;;26.10;60.60;;;;;;5082009;28;20550;-76
2022/07/13 08:20:17;;;;;;;3.95;2.60;;;26.00;60.50;;;;;;5082291;28;20031;-78
2022/07/13 08:22:43;;;;;;;4.20;2.20;;;25.90;60.60;;;;;;5083045;28;20388;-78
2022/07/13 08:25:09;;;;;;;2.28;2.08;;;25.80;61.20;;;;;;5080996;28;20036;-78
2022/07/13 08:27:35;;;;;;;4.68;2.13;;;25.70;61.50;;;;;;5080123;28;20040;-78
2022/07/13 08:30:01;;;;;;;6.30;1.98;;;25.60;61.70;;;;;;5082529;28;20049;-78
2022/07/13 08:32:27;;;;;;;4.07;2.20;;;25.60;61.20;;;;;;5084483;28;20036;-78
2022/07/13 08:40:22;;;;;;;3.85;2.00;;;25.50;61.00;;;;;;5081891;28;20041;-80
2022/07/13 08:42:48;;;;;;;5.03;1.98;;;25.60;60.50;;;;;;5090973;28;20443;-81
2022/07/13 08:45:15;;;;;;;7.80;2.00;;;25.50;60.50;;;;;;5093043;28;20051;-79
2022/07/13 08:47:46;;;;;;;2.10;1.60;;;25.40;60.70;;;;;;5088710;28;20058;-80
2022/07/13 08:50:12;;;;;;;6.10;1.83;;;25.50;60.70;;;;;;5088462;28;20032;-80
2022/07/13 08:52:40;;;;;;;4.50;1.60;;;25.50;60.70;;;;;;5093435;28;20028;-82
2022/07/13 08:55:08;;;;;;;3.90;1.70;;;25.50;60.30;;;;;;5090801;28;20494;-81
2022/07/13 08:57:36;;;;;;;2.60;1.63;;;25.40;60.70;;;;;;5080904;28;20044;-80
2022/07/13 09:00:07;;;;;;;4.22;1.95;;;25.40;61.10;;;;;;5083465;28;20033;-80
2022/07/13 09:02:33;;;;;;;3.60;2.22;;;25.50;61.20;;;;;;5086648;28;20032;-79
2022/07/13 09:05:05;;;;;;;3.78;2.20;;;25.40;61.90;;;;;;5080674;28;20024;-79
2022/07/13 09:07:32;;;;;;;9.45;2.63;;;25.50;62.50;;;;;;5081169;28;20074;-79
2022/07/13 09:09:59;;;;;;;12.75;3.42;;;25.40;63.40;;;;;;5082703;28;20036;-80
2022/07/13 09:12:26;;;;;;;6.88;2.40;;;25.30;63.30;;;;;;5082013;28;20475;-86
2022/07/13 09:14:56;;;;;;;8.18;2.72;;;25.40;62.50;;;;;;5077204;28;20089;-82
2022/07/13 09:20:12;;;;;;;7.00;2.20;;;25.40;61.60;;;;;;5135427;27;20462;-80
2022/07/13 09:22:57;;;;;;;5.13;2.30;;;25.30;62.50;;;;;;5102701;28;20024;-80
2022/07/13 09:25:32;;;;;;;4.60;2.30;;;25.40;62.20;;;;;;5102048;28;20039;-82
2022/07/13 09:28:06;;;;;;;4.22;2.35;;;25.30;63.10;;;;;;5116329;28;20031;-84
2022/07/13 09:30:34;;;;;;;4.97;1.90;;;25.40;64.20;;;;;;5101085;27;20048;-79
2022/07/13 09:33:01;;;;;;;4.53;2.00;;;25.40;63.10;;;;;;5103200;27;20040;-82
2022/07/13 09:35:45;;;;;;;5.18;2.08;;;25.40;63.00;;;;;;5103966;27;20032;-79
2022/07/13 09:38:36;;;;;;;4.57;2.13;;;25.50;63.00;;;;;;5102836;27;20043;-79
2022/07/13 09:41:17;;;;;;;4.43;1.95;;;25.50;63.30;;;;;;5102749;27;20135;-83
2022/07/13 09:47:09;;;;;;;2.15;1.75;;;25.50;63.00;;;;;;5100711;27;20039;-81
2022/07/13 09:49:35;;;;;;;4.57;2.28;;;25.30;63.50;;;;;;5100858;28;20181;-81
2022/07/13 09:52:07;;;;;;;2.88;2.08;;;25.30;63.30;;;;;;5102925;27;20080;-84
2022/07/13 09:54:39;;;;;;;6.97;2.05;;;25.30;62.10;;;;;;5093798;28;20037;-81
2022/07/13 09:58:09;;;;;;;6.13;2.15;;;25.30;61.70;;;;;;5051371;27;1414872;-82
2022/07/13 10:00:36;;;;;;;8.20;2.53;;;25.40;62.60;;;;;;5075257;28;20575;-82
2022/07/13 10:03:03;;;;;;;9.25;2.67;;;25.40;61.30;;;;;;5093806;28;20090;-83
2022/07/13 10:05:29;;;;;;;8.50;2.70;;;25.30;61.80;;;;;;5075182;28;20472;-85
2022/07/13 10:07:55;;;;;;;3.83;1.80;;;25.40;62.00;;;;;;5092654;28;20034;-81
2022/07/13 10:10:22;;;;;;;3.28;1.90;;;25.40;62.00;;;;;;5093959;28;20040;-84
2022/07/13 10:12:48;;;;;;;3.40;2.05;;;25.40;62.90;;;;;;5078590;28;20028;-86
2022/07/13 10:15:14;;;;;;;4.50;1.80;;;25.50;62.50;;;;;;5094343;28;20028;-85
2022/07/13 10:17:47;;;;;;;5.50;1.90;;;25.40;60.60;;;;;;5097133;28;20474;-89
2022/07/13 10:20:20;;;;;;;3.83;1.63;;;25.30;60.60;;;;;;5093837;28;20056;-84
2022/07/13 10:22:51;;;;;;;2.55;2.00;;;25.30;60.40;;;;;;5073387;28;20444;-82
2022/07/13 10:25:17;;;;;;;5.68;2.08;;;25.20;60.70;;;;;;5092286;28;20051;-87
2022/07/13 10:27:44;;;;;;;3.10;1.88;;;25.20;61.30;;;;;;5092911;28;20047;-87
2022/07/13 10:30:23;;;;;;;1.83;1.73;;;25.10;61.90;;;;;;5059089;28;20042;-85
2022/07/13 10:32:50;;;;;;;1.95;1.75;;;25.10;61.70;;;;;;5092167;28;20130;-86
2022/07/13 10:35:17;;;;;;;7.65;2.08;;;25.10;61.30;;;;;;5075268;28;20040;-87
2022/07/13 10:38:00;;;;;;;3.50;2.00;;;25.00;61.10;;;;;;5074142;28;20039;-85
2022/07/13 10:40:27;;;;;;;3.35;2.15;;;25.00;61.00;;;;;;5073786;28;20032;-85
2022/07/13 10:42:53;;;;;;;3.00;1.60;;;25.00;61.30;;;;;;5073563;28;20472;-83
2022/07/13 10:45:34;;;;;;;2.25;1.77;;;25.00;61.50;;;;;;5092953;28;20059;-81
2022/07/13 10:48:02;;;;;;;3.90;1.95;;;25.00;61.20;;;;;;5075855;28;20041;-86
2022/07/13 10:50:38;;;;;;;2.72;2.00;;;24.90;61.80;;;;;;5075062;28;20509;-86
2022/07/13 10:53:04;;;;;;;4.00;1.80;;;24.90;61.70;;;;;;5092729;28;20047;-84
2022/07/13 10:55:32;;;;;;;1.98;1.67;;;24.90;62.30;;;;;;5093753;28;20154;-87
2022/07/13 10:58:00;;;;;;;2.72;2.05;;;24.90;62.40;;;;;;5092331;28;20151;-86
2022/07/13 11:00:47;;;;;;;2.15;1.63;;;24.80;61.60;;;;;;5065314;28;20147;-87
2022/07/13 11:03:32;;;;;;;2.15;1.50;;;24.80;62.10;;;;;;5091573;28;20060;-81
2022/07/13 11:06:17;;;;;;;1.85;1.65;;;24.80;61.40;;;;;;5093124;28;20035;-86
2022/07/13 11:08:43;;;;;;;2.72;1.80;;;24.70;61.80;;;;;;5083337;28;20086;-87
2022/07/13 11:11:15;;;;;;;2.15;1.80;;;24.70;61.70;;;;;;5077839;28;20607;-87
2022/07/13 11:13:44;;;;;;;3.95;1.70;;;24.80;60.50;;;;;;5079229;28;20028;-87
2022/07/13 11:16:12;;;;;;;6.45;1.85;;;24.80;60.80;;;;;;5085176;28;20047;-85
2022/07/13 11:18:40;;;;;;;4.20;1.95;;;24.80;60.40;;;;;;5099349;28;20051;-91
2022/07/13 11:21:24;;;;;;;5.25;1.77;;;24.90;60.80;;;;;;5068700;28;20085;-89
2022/07/13 11:26:54;;;;;;;3.35;1.95;;;25.00;61.40;;;;;;5098736;28;20517;-86
2022/07/13 11:29:48;;;;;;;3.83;2.10;;;25.00;60.60;;;;;;5084841;28;20126;-83
2022/07/13 11:32:20;;;;;;;3.00;1.77;;;25.00;61.50;;;;;;5102868;28;20032;-85
2022/07/13 11:34:47;;;;;;;3.17;1.92;;;25.10;61.60;;;;;;5099917;28;20081;-81
2022/07/13 11:37:13;;;;;;;1.92;1.80;;;25.20;61.80;;;;;;5079610;28;20054;-84
2022/07/13 11:39:40;;;;;;;2.85;1.65;;;25.10;61.60;;;;;;5099237;28;20114;-82
2022/07/13 11:42:09;;;;;;;4.10;1.60;;;25.20;60.10;;;;;;5097158;28;20153;-80
2022/07/13 11:44:36;;;;;;;5.18;1.90;;;25.20;59.70;;;;;;5078722;28;20037;-82
2022/07/13 11:47:08;;;;;;;2.78;1.70;;;25.20;60.00;;;;;;5096546;28;20054;-81
2022/07/13 11:49:45;;;;;;;2.80;1.90;;;25.20;58.80;;;;;;5098221;28;20039;-78
2022/07/13 11:52:24;;;;;;;3.42;2.00;;;25.20;58.70;;;;;;5098692;28;20028;-80
2022/07/13 11:55:06;;;;;;;4.50;2.28;;;25.10;61.90;;;;;;5097791;28;20027;-79
2022/07/13 11:57:33;;;;;;;3.92;2.08;;;25.00;63.40;;;;;;5097252;28;20059;-79
2022/07/13 12:00:09;;;;;;;3.38;1.90;;;25.00;63.40;;;;;;5077014;28;20077;-78
2022/07/13 12:02:38;;;;;;;5.85;2.38;;;25.00;63.40;;;;;;5097548;28;20394;-80
2022/07/13 12:05:05;;;;;;;3.42;2.25;;;25.00;63.20;;;;;;5096295;28;20036;-77
2022/07/13 12:10:03;;;;;;;5.72;2.20;;;25.00;63.00;;;;;;5047145;27;20476;-83
2022/07/13 12:12:35;;;;;;;6.35;2.58;;;25.00;63.60;;;;;;5037751;28;20039;-79
2022/07/13 12:15:02;;;;;;;4.57;2.40;;;25.00;64.40;;;;;;5039262;28;20400;-92
2022/07/13 12:17:41;;;;;;;2.90;2.40;;;25.00;64.60;;;;;;5039620;28;20025;-90
2022/07/13 12:20:14;;;;;;;12.43;2.10;;;25.10;64.60;;;;;;5041270;28;20082;-86
2022/07/13 12:22:49;;;;;;;4.43;2.25;;;25.10;64.50;;;;;;5061271;28;20036;-91
2022/07/13 12:25:42;;;;;;;5.22;2.47;;;25.00;63.90;;;;;;5061023;28;20036;-78
2022/07/13 12:28:10;;;;;;;3.03;2.00;;;25.00;64.20;;;;;;5037841;28;20428;-92
2022/07/13 12:30:59;;;;;;;5.95;2.10;;;25.00;63.20;;;;;;5039291;28;20109;-87
2022/07/13 12:33:25;;;;;;;2.15;1.95;;;24.90;63.60;;;;;;5039280;28;20060;-80
2022/07/13 12:36:05;;;;;;;3.30;1.83;;;24.90;63.40;;;;;;5037904;28;20040;-84
2022/07/13 12:38:31;;;;;;;5.93;1.95;;;24.90;63.30;;;;;;5040834;28;20472;-84
2022/07/13 12:41:01;;;;;;;4.85;1.88;;;24.90;63.10;;;;;;5038095;28;20025;-82
2022/07/13 12:43:30;;;;;;;3.72;1.73;;;24.80;63.10;;;;;;5035363;28;20037;-84
2022/07/13 12:46:03;;;;;;;4.75;2.08;;;24.90;62.10;;;;;;5069031;28;20395;-82
2022/07/13 12:48:34;;;;;;;4.50;1.90;;;24.80;62.20;;;;;;5042939;28;20029;-83
2022/07/13 12:51:05;;;;;;;1.60;1.50;;;24.80;62.70;;;;;;5037358;28;20077;-81
2022/07/13 12:53:58;;;;;;;3.92;1.80;;;24.80;62.90;;;;;;5036493;28;20053;-78
2022/07/13 12:56:27;;;;;;;2.53;1.88;;;24.80;62.80;;;;;;5037562;28;20037;-84
2022/07/13 12:58:54;;;;;;;2.63;1.90;;;24.80;62.50;;;;;;5068230;28;20060;-82
2022/07/13 13:01:37;;;;;;;3.00;1.90;;;24.80;62.40;;;;;;5051806;28;20068;-83
2022/07/13 13:04:07;;;;;;;4.72;1.75;;;24.80;62.80;;;;;;5037018;28;20044;-81
2022/07/13 13:06:37;;;;;;;4.63;2.10;;;24.70;63.60;;;;;;5036186;28;20088;-78
2022/07/13 13:09:15;;;;;;;3.47;2.08;;;24.80;63.20;;;;;;5039581;28;20041;-84